Time;durP1;ratioP1;P1;durP2;ratioP2;P2;SDS_P1;SDS_P2;PMS_P1;PMS_P2;Temp;Humidity;BMP_temperature;BMP_pressure;BME280_temperature;BME280_humidity;BME280_pressure;Samples;Min_cycle;Max_cycle;Signal;HPM_P1;HPM_P2
2021/12/16 00:01:50;;;;;;;9.85;2.65;;;;;;;11.31;100.00;100667.25;5070847;28;20477;-80
2021/12/16 00:09:47;;;;;;;11.48;3.25;;;;;;;10.93;100.00;100676.97;5079889;28;20506;-80
2021/12/16 00:29:22;;;;;;;12.27;3.00;;;;;;;10.53;100.00;100674.19;5091353;28;20396;-80
2021/12/16 00:34:26;;;;;;;11.38;3.55;;;;;;;10.65;100.00;100682.28;5090819;28;20395;-80
2021/12/16 00:36:54;;;;;;;10.45;3.13;;;;;;;10.97;100.00;100686.16;5074186;28;20425;-80
2021/12/16 00:39:32;;;;;;;9.73;2.90;;;;;;;10.88;100.00;100668.91;5073300;28;20486;-80
2021/12/16 00:42:06;;;;;;;12.90;3.63;;;;;;;10.97;100.00;100686.16;5073128;28;20904;-80
2021/12/16 00:45:02;;;;;;;13.93;3.45;;;;;;;11.02;100.00;100685.81;5094106;28;20526;-80
2021/12/16 00:47:33;;;;;;;12.82;3.42;;;;;;;10.72;100.00;100685.97;5095618;28;20872;-80
2021/12/16 00:50:21;;;;;;;12.20;3.67;;;;;;;10.83;100.00;100688.84;5085055;28;20394;-81
2021/12/16 00:55:49;;;;;;;10.45;3.70;;;;;;;10.98;100.00;100682.16;5111458;28;20396;-80
2021/12/16 00:58:22;;;;;;;9.50;3.53;;;;;;;10.95;100.00;100680.97;5094285;28;20380;-80
2021/12/16 01:01:03;;;;;;;12.88;3.67;;;;;;;11.09;100.00;100691.47;5092690;28;20400;-80
2021/12/16 01:03:59;;;;;;;12.43;3.47;;;;;;;10.98;100.00;100696.16;5077610;28;20396;-80
2021/12/16 01:34:51;;;;;;;14.32;3.80;;;;;;;10.92;100.00;100675.34;5076668;28;20392;-80
2021/12/16 01:40:10;;;;;;;11.18;3.45;;;;;;;11.09;100.00;100685.88;5093569;28;20547;-80
2021/12/16 01:50:31;;;;;;;11.00;4.00;;;;;;;11.00;100.00;100677.00;5075557;28;20385;-80
2021/12/16 01:53:13;;;;;;;13.07;4.22;;;;;;;10.93;100.00;100672.16;5094688;28;20471;-80
2021/12/16 01:56:01;;;;;;;13.65;4.10;;;;;;;10.92;100.00;100684.53;5060163;28;20392;-80
2021/12/16 01:58:32;;;;;;;13.13;3.90;;;;;;;10.85;100.00;100692.06;5110095;28;20407;-80
2021/12/16 02:01:20;;;;;;;14.30;4.17;;;;;;;10.58;100.00;100687.81;5076530;28;20804;-80
2021/12/16 02:04:17;;;;;;;14.40;4.32;;;;;;;10.58;100.00;100694.22;5093142;28;20407;-80
2021/12/16 02:09:45;;;;;;;13.60;4.00;;;;;;;10.51;100.00;100684.97;5093162;28;20389;-80
2021/12/16 02:12:43;;;;;;;12.43;3.63;;;;;;;10.54;100.00;100681.41;5093096;28;20392;-80
2021/12/16 02:29:27;;;;;;;12.40;3.20;;;;;;;10.46;100.00;100702.91;5093854;28;20473;-80
2021/12/16 02:35:00;;;;;;;12.85;3.00;;;;;;;10.42;100.00;100723.59;5084602;28;20890;-79
2021/12/16 02:37:31;;;;;;;11.10;3.08;;;;;;;10.37;100.00;100732.31;5092584;28;20533;-80
2021/12/16 02:40:01;;;;;;;11.25;3.17;;;;;;;10.14;100.00;100720.47;5075523;28;20381;-80
2021/12/16 02:42:41;;;;;;;13.20;3.20;;;;;;;10.49;100.00;100746.03;5092320;28;20445;-80
2021/12/16 02:51:03;;;;;;;9.90;3.20;;;;;;;10.47;100.00;100724.06;5050748;28;20387;-80
2021/12/16 02:53:32;;;;;;;14.45;3.10;;;;;;;10.31;100.00;100736.66;5034170;28;20431;-80
2021/12/16 02:55:59;;;;;;;11.90;2.83;;;;;;;10.19;100.00;100736.91;5034135;28;20399;-80
2021/12/16 02:58:27;;;;;;;11.45;3.00;;;;;;;10.34;100.00;100736.69;5050620;28;20859;-80
2021/12/16 03:01:03;;;;;;;12.60;3.10;;;;;;;10.30;100.00;100732.25;5049837;28;20403;-80
2021/12/16 03:03:31;;;;;;;10.18;2.92;;;;;;;10.02;100.00;100727.09;5047310;28;20403;-80
2021/12/16 03:06:01;;;;;;;10.95;3.17;;;;;;;10.01;100.00;100733.06;5050711;28;20414;-80
2021/12/16 03:08:31;;;;;;;13.93;3.47;;;;;;;10.33;100.00;100753.84;5033980;28;20735;-80
2021/12/16 03:13:41;;;;;;;10.52;2.90;;;;;;;10.11;100.00;100726.81;5050574;28;20942;-80
2021/12/16 03:21:29;;;;;;;8.73;2.92;;;;;;;10.05;100.00;100722.72;5052058;28;20404;-80
2021/12/16 03:24:41;;;;;;;10.77;3.40;;;;;;;10.16;100.00;100726.50;5071365;28;20382;-80
2021/12/16 03:36:04;;;;;;;13.00;3.65;;;;;;;10.52;100.00;100743.28;5049798;28;20411;-80
2021/12/16 03:38:36;;;;;;;11.45;3.35;;;;;;;10.56;100.00;100732.13;5049882;28;20399;-80
2021/12/16 03:41:06;;;;;;;10.25;3.65;;;;;;;10.30;100.00;100715.50;5033183;28;20410;-80
2021/12/16 03:43:36;;;;;;;11.20;3.28;;;;;;;10.30;100.00;100719.06;5033257;28;20434;-80
2021/12/16 03:49:01;;;;;;;8.48;3.22;;;;;;;10.65;100.00;100738.19;5033291;28;20747;-80
2021/12/16 03:51:48;;;;;;;11.57;3.30;;;;;;;10.68;100.00;100726.25;5049769;28;20406;-80
2021/12/16 03:54:25;;;;;;;17.75;4.13;;;;;;;10.53;100.00;100714.13;5049668;28;20396;-80
2021/12/16 03:57:01;;;;;;;10.00;3.30;;;;;;;10.54;100.00;100732.50;5033131;28;20392;-80
2021/12/16 03:59:31;;;;;;;12.07;3.60;;;;;;;10.51;100.00;100727.69;5049733;28;20422;-80
2021/12/16 04:02:11;;;;;;;13.57;3.70;;;;;;;10.38;100.00;100731.13;5049329;28;20795;-80
2021/12/16 04:04:43;;;;;;;10.95;3.25;;;;;;;10.37;100.00;100744.31;5033132;28;20403;-80
2021/12/16 04:07:11;;;;;;;13.43;4.18;;;;;;;10.22;100.00;100738.94;5032984;28;20391;-80
2021/12/16 04:09:59;;;;;;;12.95;3.85;;;;;;;10.14;100.00;100729.66;5035862;28;20429;-80
2021/12/16 04:12:28;;;;;;;12.75;3.85;;;;;;;10.48;100.00;100747.22;5043341;28;20401;-80
2021/12/16 04:14:59;;;;;;;12.30;3.88;;;;;;;10.21;100.00;100746.50;5078344;28;20877;-80
2021/12/16 04:17:31;;;;;;;13.63;3.80;;;;;;;10.30;100.00;100735.06;5094726;28;20437;-80
2021/12/16 04:20:17;;;;;;;12.88;3.60;;;;;;;10.52;100.00;100751.66;5094917;28;20395;-80
2021/12/16 04:22:45;;;;;;;13.63;3.95;;;;;;;10.47;100.00;100745.59;5094824;28;20412;-80
2021/12/16 04:25:23;;;;;;;14.20;3.83;;;;;;;10.10;100.00;100733.59;5095067;28;20415;-80
2021/12/16 04:27:54;;;;;;;15.10;4.13;;;;;;;10.22;100.00;100741.72;5094793;28;20416;-80
2021/12/16 04:30:25;;;;;;;11.45;4.13;;;;;;;10.62;100.00;100759.34;5094566;28;20437;-80
2021/12/16 04:32:53;;;;;;;12.57;3.90;;;;;;;10.53;100.00;100747.69;5094645;28;20762;-80
2021/12/16 04:35:22;;;;;;;11.57;3.85;;;;;;;10.20;100.00;100752.47;5094467;28;20538;-80
2021/12/16 04:37:52;;;;;;;11.10;3.83;;;;;;;10.25;100.00;100758.50;5077698;28;20482;-80
2021/12/16 04:40:22;;;;;;;13.35;3.67;;;;;;;10.70;100.00;100769.44;5077605;28;20427;-80
2021/12/16 04:42:59;;;;;;;11.90;3.70;;;;;;;10.63;100.00;100757.38;5077683;28;20376;-80
2021/12/16 04:45:33;;;;;;;13.32;3.67;;;;;;;10.67;100.00;100774.97;5094207;28;20396;-80
2021/12/16 04:48:04;;;;;;;15.07;4.43;;;;;;;10.18;100.00;100763.22;5094648;28;20396;-80
2021/12/16 04:50:36;;;;;;;12.55;4.00;;;;;;;10.20;100.00;100764.47;5094266;28;20396;-80
2021/12/16 04:53:04;;;;;;;10.48;3.65;;;;;;;10.32;100.00;100775.38;5094327;28;20410;-80
2021/12/16 04:55:35;;;;;;;13.52;3.83;;;;;;;10.48;100.00;100766.78;5094263;28;20395;-80
2021/12/16 04:58:03;;;;;;;12.00;4.20;;;;;;;10.47;100.00;100773.53;5094179;28;20441;-80
2021/12/16 05:00:31;;;;;;;12.50;3.60;;;;;;;10.45;100.00;100795.50;5093808;28;20481;-80
2021/12/16 05:03:19;;;;;;;12.35;3.95;;;;;;;10.38;100.00;100795.41;5077195;28;20411;-80
2021/12/16 05:05:47;;;;;;;12.48;3.75;;;;;;;10.56;100.00;100799.19;5094015;28;20384;-80
2021/12/16 05:08:14;;;;;;;11.90;4.00;;;;;;;10.59;100.00;100788.06;5093954;28;20388;-80
2021/12/16 05:11:04;;;;;;;10.27;3.30;;;;;;;10.60;100.00;100814.81;5093413;28;20388;-80
2021/12/16 05:13:37;;;;;;;14.55;3.70;;;;;;;10.81;100.00;100792.69;5093620;28;20839;-80
2021/12/16 05:16:08;;;;;;;11.13;3.90;;;;;;;10.92;100.00;100807.59;5093841;28;20491;-80
2021/12/16 05:18:41;;;;;;;12.00;3.03;;;;;;;10.94;100.00;100784.84;5077098;28;20750;-79
2021/12/16 05:24:29;;;;;;;10.45;3.17;;;;;;;11.02;100.00;100803.31;5034717;28;20406;-80
2021/12/16 05:27:09;;;;;;;10.98;3.20;;;;;;;11.37;100.00;100837.22;5052146;28;20437;-80
2021/12/16 05:33:23;;;;;;;13.55;3.42;;;;;;;10.92;100.00;100817.97;5051589;28;20877;-80
2021/12/16 05:35:52;;;;;;;9.57;3.20;;;;;;;11.47;100.00;100797.31;5051802;28;20979;-80
2021/12/16 05:38:45;;;;;;;11.83;3.30;;;;;;;11.35;100.00;100825.59;5052149;28;20400;-80
2021/12/16 05:41:17;;;;;;;11.75;3.38;;;;;;;11.14;100.00;100816.19;5051907;28;21032;-80
2021/12/16 05:43:47;;;;;;;13.88;3.72;;;;;;;11.29;100.00;100801.94;5051686;28;20395;-80
2021/12/16 05:46:19;;;;;;;9.32;2.92;;;;;;;11.44;100.00;100806.47;5034908;28;20391;-80
2021/12/16 05:48:49;;;;;;;11.88;3.45;;;;;;;11.56;100.00;100820.16;5051735;28;20391;-80
2021/12/16 05:51:26;;;;;;;11.07;3.10;;;;;;;11.25;100.00;100829.09;5035162;28;20595;-79
2021/12/16 05:54:01;;;;;;;9.77;2.95;;;;;;;11.35;100.00;100828.38;5035135;28;20735;-79
2021/12/16 05:56:42;;;;;;;10.00;2.95;;;;;;;11.13;100.00;100829.41;5072707;28;20402;-80
2021/12/16 05:59:12;;;;;;;12.50;3.40;;;;;;;11.13;100.00;100823.81;5072950;28;20398;-81
2021/12/16 06:01:42;;;;;;;8.85;3.45;;;;;;;11.22;100.00;100840.25;5076785;28;20798;-81
2021/12/16 06:04:10;;;;;;;11.10;2.88;;;;;;;11.09;100.00;100830.56;5085539;28;20413;-82
2021/12/16 06:06:38;;;;;;;11.70;3.80;;;;;;;11.12;100.00;100824.97;5068806;28;20392;-82
2021/12/16 06:09:08;;;;;;;12.10;3.33;;;;;;;11.36;100.00;100841.19;5093021;28;20389;-82
2021/12/16 06:11:39;;;;;;;8.13;3.40;;;;;;;10.94;100.00;100829.59;5092736;28;20389;-82
2021/12/16 06:27:49;;;;;;;9.70;3.45;;;;;;;10.78;100.00;100854.97;5086317;28;20845;-81
2021/12/16 06:30:24;;;;;;;11.00;3.33;;;;;;;11.02;100.00;100858.44;5082210;28;20394;-82
2021/12/16 06:32:52;;;;;;;12.55;3.78;;;;;;;10.91;100.00;100859.13;5088569;28;20387;-81
2021/12/16 06:35:20;;;;;;;9.70;3.30;;;;;;;11.29;100.00;100862.69;5093176;28;20392;-81
2021/12/16 06:37:48;;;;;;;11.77;3.60;;;;;;;11.30;100.00;100851.13;5075826;28;20392;-82
2021/12/16 06:40:27;;;;;;;8.38;3.75;;;;;;;11.12;100.00;100850.16;5089690;28;20392;-81
2021/12/16 06:43:10;;;;;;;8.80;3.22;;;;;;;11.16;100.00;100858.59;5090374;28;20712;-82
2021/12/16 06:45:42;;;;;;;10.73;3.53;;;;;;;11.46;100.00;100862.88;5088355;28;20452;-81
2021/12/16 06:48:15;;;;;;;13.53;3.40;;;;;;;11.22;100.00;100868.25;5075012;28;20481;-81
2021/12/16 06:53:18;;;;;;;10.43;3.17;;;;;;;11.32;100.00;100854.34;5083417;28;20401;-81
2021/12/16 06:55:58;;;;;;;10.90;2.97;;;;;;;11.22;100.00;100866.25;5072821;28;20406;-82
2021/12/16 06:58:47;;;;;;;9.65;3.25;;;;;;;11.18;100.00;100862.59;5088268;28;20402;-81
2021/12/16 07:01:36;;;;;;;11.60;3.40;;;;;;;11.35;100.00;100867.56;5083437;28;20418;-81
2021/12/16 07:04:13;;;;;;;9.00;2.97;;;;;;;11.28;100.00;100878.72;5082119;28;20466;-81
2021/12/16 07:06:41;;;;;;;7.28;3.10;;;;;;;11.22;100.00;100905.44;5060269;28;20396;-80
2021/12/16 07:09:13;;;;;;;9.95;3.40;;;;;;;11.13;100.00;100895.72;5084756;28;20437;-79
2021/12/16 07:11:43;;;;;;;9.30;3.13;;;;;;;11.28;100.00;100895.50;5091240;28;20483;-79
2021/12/16 07:14:15;;;;;;;10.38;3.42;;;;;;;11.30;100.00;100901.50;5084054;28;20398;-79
2021/12/16 07:16:50;;;;;;;10.65;3.10;;;;;;;11.20;100.00;100905.00;5088581;28;20740;-79
2021/12/16 07:19:18;;;;;;;9.13;3.45;;;;;;;11.34;100.00;100893.97;5072568;28;20401;-79
2021/12/16 07:21:45;;;;;;;8.40;3.80;;;;;;;11.18;100.00;100910.16;5075577;28;20389;-79
2021/12/16 07:24:18;;;;;;;8.15;3.28;;;;;;;11.03;100.00;100911.19;5091889;28;20391;-79
2021/12/16 07:26:46;;;;;;;8.57;3.38;;;;;;;11.11;100.00;100923.28;5071224;28;20394;-79
2021/12/16 07:29:14;;;;;;;9.50;3.28;;;;;;;11.13;100.00;100916.13;5072487;28;20482;-78
2021/12/16 07:31:41;;;;;;;6.78;2.85;;;;;;;11.00;100.00;100920.34;5079283;28;20384;-78
2021/12/16 07:34:10;;;;;;;9.70;3.40;;;;;;;11.20;100.00;100915.38;5089275;28;20404;-79
2021/12/16 07:36:40;;;;;;;9.40;2.95;;;;;;;11.06;100.00;100949.59;5071874;28;20410;-77
2021/12/16 07:39:10;;;;;;;10.90;3.55;;;;;;;11.09;100.00;100948.84;5083109;28;20392;-78
2021/12/16 07:41:40;;;;;;;9.20;3.00;;;;;;;10.99;100.00;100939.13;5086321;28;20901;-78
2021/12/16 07:44:10;;;;;;;8.70;3.83;;;;;;;10.93;100.00;100942.66;5087794;28;20400;-77
2021/12/16 07:46:48;;;;;;;10.90;3.40;;;;;;;10.97;100.00;100935.09;5087084;28;20399;-77
2021/12/16 07:49:19;;;;;;;6.65;3.05;;;;;;;11.06;100.00;100957.22;5078221;28;20760;-77
2021/12/16 07:51:48;;;;;;;10.93;4.05;;;;;;;11.14;100.00;100962.50;5073100;28;20392;-77
2021/12/16 07:54:17;;;;;;;9.10;3.80;;;;;;;11.06;100.00;100971.19;5074443;28;20866;-78
2021/12/16 07:56:46;;;;;;;13.07;3.63;;;;;;;11.08;100.00;100969.63;5083900;28;20802;-77
2021/12/16 07:59:16;;;;;;;8.15;3.72;;;;;;;11.15;100.00;100966.09;5088496;28;20388;-78
2021/12/16 08:01:45;;;;;;;11.90;3.92;;;;;;;11.40;100.00;100970.78;5088709;28;20844;-78
2021/12/16 08:04:22;;;;;;;11.63;4.40;;;;;;;11.22;100.00;100957.78;5089452;28;20400;-78
2021/12/16 08:06:52;;;;;;;9.02;4.30;;;;;;;11.24;100.00;100973.00;5070378;28;20488;-77
2021/12/16 08:09:20;;;;;;;11.82;4.78;;;;;;;11.22;100.00;100985.78;5091695;28;20811;-78
2021/12/16 08:11:50;;;;;;;13.65;4.47;;;;;;;11.33;100.00;100976.28;5075688;28;20386;-79
2021/12/16 08:14:18;;;;;;;12.85;4.80;;;;;;;11.13;100.00;101002.06;5071181;28;20394;-78
2021/12/16 08:16:46;;;;;;;10.80;4.88;;;;;;;11.06;100.00;100994.38;5074177;28;20413;-77
2021/12/16 08:19:13;;;;;;;11.25;4.70;;;;;;;11.18;100.00;100996.91;5081981;28;20406;-78
2021/12/16 08:21:41;;;;;;;12.43;4.20;;;;;;;11.16;100.00;100999.31;5085133;28;20473;-78
2021/12/16 08:24:14;;;;;;;11.60;4.30;;;;;;;11.46;100.00;101002.03;5080813;28;20392;-78
2021/12/16 08:26:42;;;;;;;11.90;4.38;;;;;;;10.99;100.00;100988.69;5087623;28;20405;-78
2021/12/16 08:29:09;;;;;;;13.00;4.78;;;;;;;11.29;100.00;101003.44;5084920;28;20427;-78
2021/12/16 08:31:37;;;;;;;12.63;4.60;;;;;;;11.24;100.00;101012.16;5084535;28;20411;-80
2021/12/16 08:34:05;;;;;;;12.20;4.70;;;;;;;11.46;100.00;101007.63;5089894;28;20657;-79
2021/12/16 08:36:34;;;;;;;10.23;4.18;;;;;;;11.22;100.00;101008.97;5091532;28;20400;-77
2021/12/16 08:39:09;;;;;;;11.63;5.00;;;;;;;11.47;100.00;101010.06;5091763;28;20389;-78
2021/12/16 08:41:47;;;;;;;12.02;4.57;;;;;;;11.37;100.00;101012.72;5073448;28;20429;-76
2021/12/16 08:44:15;;;;;;;11.38;4.65;;;;;;;11.67;100.00;101021.91;5085259;28;20386;-79
2021/12/16 08:46:50;;;;;;;9.85;4.22;;;;;;;11.82;100.00;101010.47;5087196;28;20413;-78
2021/12/16 08:49:17;;;;;;;9.73;4.30;;;;;;;11.83;100.00;101020.47;5071593;28;20382;-79
2021/12/16 08:51:49;;;;;;;16.97;5.87;;;;;;;11.80;100.00;101026.06;5086896;28;20388;-79
2021/12/16 08:54:18;;;;;;;11.45;4.50;;;;;;;11.28;100.00;101043.81;5090550;28;20404;-78
2021/12/16 08:56:47;;;;;;;10.68;4.70;;;;;;;11.32;100.00;101035.47;5086542;28;20409;-77
2021/12/16 08:59:17;;;;;;;11.10;4.70;;;;;;;11.44;100.00;101016.41;5081287;28;20398;-79
2021/12/16 09:01:49;;;;;;;9.73;4.68;;;;;;;11.70;100.00;101038.75;5063219;28;20406;-79
2021/12/16 09:04:19;;;;;;;8.65;4.35;;;;;;;11.65;100.00;101050.28;5087893;28;20488;-79
2021/12/16 09:06:47;;;;;;;9.80;4.70;;;;;;;11.64;100.00;101034.69;5089877;28;20485;-79
2021/12/16 09:09:15;;;;;;;14.30;4.95;;;;;;;11.61;100.00;101027.00;5076915;28;20396;-79
2021/12/16 09:12:00;;;;;;;11.23;5.25;;;;;;;11.75;100.00;101044.00;5110819;28;20407;-77
2021/12/16 09:14:29;;;;;;;10.27;4.63;;;;;;;11.64;100.00;101043.06;5075129;28;21013;-82
2021/12/16 09:16:57;;;;;;;10.07;4.73;;;;;;;11.69;100.00;101044.72;5093863;28;20468;-80
2021/12/16 09:19:25;;;;;;;10.13;5.05;;;;;;;11.71;100.00;101037.53;5093691;28;20475;-80
2021/12/16 09:21:52;;;;;;;12.48;5.68;;;;;;;11.48;100.00;101033.25;5093225;28;20393;-78
2021/12/16 09:24:20;;;;;;;11.85;5.72;;;;;;;11.71;100.00;101048.75;5093486;28;20383;-80
2021/12/16 09:26:47;;;;;;;11.07;5.10;;;;;;;11.32;100.00;101053.06;5087518;28;20389;-79
2021/12/16 09:29:17;;;;;;;10.45;4.00;;;;;;;11.21;100.00;101052.13;5089945;28;20894;-79
2021/12/16 09:31:45;;;;;;;11.00;4.67;;;;;;;11.72;100.00;101064.34;5089950;28;20396;-80
2021/12/16 09:34:12;;;;;;;10.15;4.45;;;;;;;11.70;100.00;101058.34;5088878;28;20423;-80
2021/12/16 09:36:43;;;;;;;11.27;4.35;;;;;;;11.87;100.00;101052.13;5089800;28;20472;-81
2021/12/16 09:39:16;;;;;;;9.07;4.45;;;;;;;11.70;100.00;101052.75;5091872;28;20412;-80
2021/12/16 09:41:47;;;;;;;14.27;5.07;;;;;;;11.81;100.00;101064.06;5091065;28;20468;-80
2021/12/16 09:44:16;;;;;;;11.37;4.43;;;;;;;11.56;100.00;101052.53;5089356;28;20420;-80
2021/12/16 09:46:48;;;;;;;9.23;3.88;;;;;;;11.53;100.00;101053.31;5090762;28;20799;-80
2021/12/16 09:49:18;;;;;;;9.80;4.40;;;;;;;11.79;100.00;101072.84;5086184;28;20463;-80
2021/12/16 09:51:48;;;;;;;9.00;4.10;;;;;;;11.25;100.00;101044.59;5092668;28;20388;-80
2021/12/16 09:54:21;;;;;;;9.77;4.47;;;;;;;11.58;100.00;101069.78;5094111;28;20874;-80
2021/12/16 09:56:50;;;;;;;13.55;4.60;;;;;;;11.61;100.00;101069.00;5093786;28;20494;-80
2021/12/16 09:59:20;;;;;;;24.05;11.95;;;;;;;11.43;100.00;101070.81;5092881;28;20863;-79
2021/12/16 10:01:50;;;;;;;8.25;3.83;;;;;;;11.82;100.00;101066.47;5093816;28;20870;-80
2021/12/16 10:04:20;;;;;;;176.80;134.52;;;;;;;11.86;100.00;101067.31;5093429;28;20850;-80
2021/12/16 10:06:51;;;;;;;92.30;79.45;;;;;;;12.08;100.00;101077.56;5092760;28;20471;-79
2021/12/16 10:09:19;;;;;;;124.90;71.05;;;;;;;12.16;100.00;101078.44;5076206;28;20402;-80
2021/12/16 10:11:50;;;;;;;8.50;4.20;;;;;;;11.87;100.00;101088.56;5083822;28;20390;-79
2021/12/16 10:14:33;;;;;;;7.07;3.55;;;;;;;11.66;100.00;101099.47;5073837;28;20416;-79
2021/12/16 10:20:22;;;;;;;10.52;5.03;;;;;;;11.92;100.00;101113.41;5047888;28;21484;-80
2021/12/16 10:22:51;;;;;;;8.85;4.50;;;;;;;11.75;100.00;101110.41;5056406;28;20407;-79
2021/12/16 10:25:30;;;;;;;8.40;3.97;;;;;;;11.86;100.00;101103.72;5050149;28;20396;-80
2021/12/16 10:28:04;;;;;;;8.50;3.90;;;;;;;11.90;100.00;101115.78;5041760;28;20462;-80
2021/12/16 10:31:04;;;;;;;10.25;3.72;;;;;;;11.72;100.00;101089.56;5046094;28;20898;-79
2021/12/16 10:33:41;;;;;;;13.18;5.03;;;;;;;12.05;100.00;101120.34;5043620;28;20426;-79
2021/12/16 10:36:17;;;;;;;10.52;4.45;;;;;;;11.89;100.00;101108.56;5044697;28;20418;-79
2021/12/16 10:39:01;;;;;;;11.40;6.00;;;;;;;12.31;100.00;101116.63;5047191;28;20422;-79
2021/12/16 10:41:39;;;;;;;30.63;22.50;;;;;;;12.52;100.00;101112.00;5050046;28;20819;-79
2021/12/16 10:44:12;;;;;;;16.00;9.93;;;;;;;12.38;100.00;101095.06;5049718;28;20900;-79
2021/12/16 10:46:48;;;;;;;11.40;5.65;;;;;;;12.52;100.00;101098.00;5049944;28;20392;-80
2021/12/16 10:49:20;;;;;;;13.75;7.50;;;;;;;12.71;100.00;101103.34;5045963;28;20433;-79
2021/12/16 10:52:11;;;;;;;11.00;5.77;;;;;;;12.77;100.00;101100.19;5081378;28;22390;-79
2021/12/16 10:54:46;;;;;;;12.70;6.25;;;;;;;12.49;100.00;101112.78;5084620;28;20476;-79
2021/12/16 10:57:18;;;;;;;14.35;6.97;;;;;;;12.97;100.00;101115.53;5088121;28;20495;-78
2021/12/16 10:59:58;;;;;;;9.35;4.53;;;;;;;12.45;100.00;101097.91;5087876;28;20461;-79
2021/12/16 11:02:32;;;;;;;8.25;4.95;;;;;;;12.84;100.00;101101.03;5101046;28;20414;-81
2021/12/16 11:05:17;;;;;;;14.32;6.90;;;;;;;13.22;100.00;101113.72;5078282;28;20460;-79
2021/12/16 11:07:48;;;;;;;9.15;4.60;;;;;;;12.93;100.00;101103.47;5087916;28;20396;-79
2021/12/16 11:10:18;;;;;;;11.63;4.85;;;;;;;13.31;100.00;101119.78;5088676;28;20490;-80
2021/12/16 11:12:55;;;;;;;13.98;4.65;;;;;;;13.10;100.00;101126.06;5088007;28;20388;-79
2021/12/16 11:15:29;;;;;;;12.20;4.80;;;;;;;12.92;100.00;101121.53;5092946;28;20740;-76
2021/12/16 11:18:17;;;;;;;14.07;5.27;;;;;;;12.82;100.00;101113.81;5087100;28;20478;-83
2021/12/16 11:20:50;;;;;;;15.52;6.35;;;;;;;12.68;100.00;101112.53;5042211;28;20400;-83
2021/12/16 11:23:33;;;;;;;14.43;6.40;;;;;;;12.98;100.00;101117.16;5053283;28;20394;-84
2021/12/16 11:26:07;;;;;;;13.57;6.50;;;;;;;13.01;100.00;101110.78;5076446;28;20859;-82
2021/12/16 11:28:38;;;;;;;10.45;6.15;;;;;;;12.72;100.00;101104.16;5046216;28;20436;-88
2021/12/16 11:31:11;;;;;;;15.07;6.78;;;;;;;12.99;100.00;101135.59;5074307;28;20389;-87
2021/12/16 11:33:50;;;;;;;14.13;6.60;;;;;;;12.79;100.00;101126.63;5068369;28;20424;-88
2021/12/16 11:36:43;;;;;;;13.80;8.18;;;;;;;13.03;100.00;101125.22;5107913;28;20404;-87
2021/12/16 11:39:18;;;;;;;18.73;10.10;;;;;;;13.19;100.00;101117.31;5053604;28;20394;-85
2021/12/16 11:41:52;;;;;;;19.60;10.50;;;;;;;13.39;100.00;101101.78;5073002;28;20420;-85
2021/12/16 11:45:10;;;;;;;17.13;9.48;;;;;;;13.73;100.00;101136.84;5084637;28;20807;-85
2021/12/16 11:47:47;;;;;;;13.27;7.65;;;;;;;13.53;100.00;101127.13;5088849;28;20389;-86
2021/12/16 11:50:14;;;;;;;11.32;5.32;;;;;;;13.65;100.00;101124.75;5072170;28;20386;-87
2021/12/16 11:52:44;;;;;;;11.43;5.50;;;;;;;13.56;100.00;101120.69;5054593;28;20882;-86
2021/12/16 11:55:42;;;;;;;11.73;5.30;;;;;;;13.44;100.00;101132.28;5071093;28;20416;-84
2021/12/16 11:58:09;;;;;;;14.65;7.57;;;;;;;13.37;100.00;101123.84;5070996;28;20389;-86
2021/12/16 12:00:40;;;;;;;13.63;6.55;;;;;;;13.36;100.00;101111.00;5054217;28;20405;-87
2021/12/16 12:03:13;;;;;;;13.13;6.00;;;;;;;13.02;100.00;101124.44;5087790;28;20485;-83
2021/12/16 12:05:44;;;;;;;11.83;5.53;;;;;;;13.37;100.00;101135.88;5054477;28;20935;-89
2021/12/16 12:08:20;;;;;;;15.90;9.07;;;;;;;13.34;100.00;101139.47;5060193;28;21067;-86
2021/12/16 12:11:10;;;;;;;11.07;5.18;;;;;;;13.29;100.00;101139.84;5071952;28;20408;-86
2021/12/16 12:13:41;;;;;;;13.43;5.80;;;;;;;13.42;100.00;101134.69;5032698;28;20395;-87
2021/12/16 12:20:36;;;;;;;11.75;4.80;;;;;;;13.20;100.00;101147.00;5009183;28;20426;-89
2021/12/16 12:23:04;;;;;;;11.45;4.80;;;;;;;12.85;100.00;101155.13;4969058;28;20472;-88
2021/12/16 12:25:31;;;;;;;12.95;5.13;;;;;;;13.00;100.00;101128.81;5012653;28;20413;-89
2021/12/16 12:27:59;;;;;;;10.27;4.28;;;;;;;13.08;100.00;101141.69;4996985;28;20409;-89
2021/12/16 12:30:30;;;;;;;10.77;4.03;;;;;;;12.63;100.00;101157.75;5013473;28;20404;-88
2021/12/16 12:32:57;;;;;;;10.68;4.30;;;;;;;12.57;100.00;101150.88;5029310;28;20488;-89
2021/12/16 12:35:28;;;;;;;9.32;4.57;;;;;;;12.61;100.00;101145.31;5018352;28;20415;-88
2021/12/16 12:37:59;;;;;;;11.25;4.80;;;;;;;12.93;100.00;101148.38;4997517;28;20403;-88
2021/12/16 12:40:32;;;;;;;13.43;4.40;;;;;;;13.13;100.00;101153.34;5000281;28;20412;-88
2021/12/16 12:42:59;;;;;;;11.90;4.68;;;;;;;12.86;100.00;101131.50;4999990;28;20409;-90
2021/12/16 12:45:34;;;;;;;9.88;4.60;;;;;;;12.84;100.00;101123.47;5016677;28;20404;-88
2021/12/16 12:48:05;;;;;;;12.63;4.95;;;;;;;12.68;100.00;101146.19;5033603;28;20463;-89
2021/12/16 12:50:35;;;;;;;9.00;4.50;;;;;;;12.62;100.00;101128.09;5000851;28;20417;-86
2021/12/16 12:53:17;;;;;;;11.80;4.63;;;;;;;12.82;100.00;101137.06;4998579;28;20389;-85
2021/12/16 12:55:51;;;;;;;13.70;4.10;;;;;;;12.59;100.00;101134.50;5019537;28;20409;-89
2021/12/16 12:58:23;;;;;;;11.52;4.30;;;;;;;12.51;100.00;101155.25;5068381;28;20399;-89
2021/12/16 13:00:57;;;;;;;9.02;4.00;;;;;;;12.60;100.00;101147.31;5040114;28;20397;-89
2021/12/16 13:03:34;;;;;;;8.30;3.72;;;;;;;12.75;100.00;101153.88;5058031;28;20464;-88
2021/12/16 13:06:08;;;;;;;8.02;4.07;;;;;;;12.80;100.00;101141.47;5057276;28;20396;-89
2021/12/16 13:08:44;;;;;;;7.70;4.22;;;;;;;12.63;100.00;101145.75;5057447;28;20390;-89
2021/12/16 13:11:16;;;;;;;7.60;3.97;;;;;;;12.68;100.00;101142.56;5057569;28;20733;-89
2021/12/16 13:14:26;;;;;;;9.63;4.05;;;;;;;12.62;100.00;101144.94;5041056;28;20402;-87
2021/12/16 13:24:14;;;;;;;10.05;4.07;;;;;;;12.80;100.00;101167.50;5090366;28;20402;-87
2021/12/16 13:26:59;;;;;;;12.35;4.45;;;;;;;12.87;100.00;101158.34;5090083;28;20429;-87
2021/12/16 13:32:10;;;;;;;14.30;4.80;;;;;;;12.94;100.00;101172.44;5073733;28;20471;-87
2021/12/16 13:35:10;;;;;;;10.50;4.50;;;;;;;13.04;100.00;101163.34;5076414;28;20396;-87
2021/12/16 13:37:44;;;;;;;9.35;4.40;;;;;;;12.61;100.00;101146.13;5076693;28;20396;-87
2021/12/16 13:40:14;;;;;;;12.27;4.30;;;;;;;12.57;100.00;101153.69;5090105;28;20446;-87
2021/12/16 13:42:54;;;;;;;7.93;4.47;;;;;;;12.59;100.00;101150.50;5073353;28;20386;-87
2021/12/16 13:45:33;;;;;;;9.57;4.15;;;;;;;12.68;100.00;101143.38;5039427;28;20386;-88
2021/12/16 14:02:27;;;;;;;8.45;3.33;;;;;;;12.49;100.00;101135.22;5072369;28;20434;-85
2021/12/16 14:05:17;;;;;;;6.32;3.45;;;;;;;12.46;100.00;101147.16;5089558;28;20404;-83
2021/12/16 14:07:54;;;;;;;9.33;3.60;;;;;;;12.61;100.00;101154.56;5090137;28;20388;-82
2021/12/16 14:10:43;;;;;;;7.20;3.40;;;;;;;12.58;100.00;101160.13;5053352;28;20752;-82
2021/12/16 14:31:15;;;;;;;7.55;3.75;;;;;;;12.41;100.00;101167.19;5065528;28;20392;-85
2021/12/16 14:34:50;;;;;;;8.43;3.50;;;;;;;12.48;100.00;101156.00;5070584;28;20941;-87
2021/12/16 14:45:44;;;;;;;7.65;3.63;;;;;;;12.20;100.00;101178.16;5081219;28;20427;-86
2021/12/16 14:50:48;;;;;;;7.93;4.10;;;;;;;12.15;100.00;101164.50;5089355;28;21235;-85
2021/12/16 14:53:23;;;;;;;6.65;4.00;;;;;;;12.09;100.00;101159.59;5080359;28;20439;-85
2021/12/16 14:55:54;;;;;;;8.15;4.13;;;;;;;11.97;100.00;101152.28;5086164;28;20440;-82
2021/12/16 14:58:24;;;;;;;8.00;4.60;;;;;;;12.03;100.00;101170.38;5069655;28;20390;-86
2021/12/16 15:01:17;;;;;;;8.85;4.18;;;;;;;11.58;100.00;101167.78;5080842;28;20408;-87